Time;durP1;ratioP1;P1;durP2;ratioP2;P2;SDS_P1;SDS_P2;PMS_P1;PMS_P2;Temp;Humidity;BMP_temperature;BMP_pressure;BME280_temperature;BME280_humidity;BME280_pressure;Samples;Min_cycle;Max_cycle;Signal;HPM_P1;HPM_P2
2022/07/05 00:00:09;;;;;;;10.15;3.55;;;;;;;15.62;64.60;99728.31;5105110;27;20553;-56
2022/07/05 00:02:34;;;;;;;7.82;3.28;;;;;;;15.51;64.35;99740.97;5120384;27;20122;-57
2022/07/05 00:04:59;;;;;;;10.23;3.58;;;;;;;15.39;64.85;99733.06;5115916;27;20046;-57
2022/07/05 00:07:25;;;;;;;10.13;3.42;;;;;;;15.26;65.59;99739.72;5125551;27;20529;-57
2022/07/05 00:09:52;;;;;;;10.88;3.75;;;;;;;15.26;65.48;99734.34;5116140;27;20474;-57
2022/07/05 00:12:17;;;;;;;10.30;3.85;;;;;;;15.37;64.87;99739.78;5108923;27;20038;-55
2022/07/05 00:14:43;;;;;;;11.40;3.53;;;;;;;15.40;65.33;99752.75;5123972;27;20028;-57
2022/07/05 00:17:09;;;;;;;7.03;3.60;;;;;;;15.45;65.45;99747.38;5120513;27;20346;-56
2022/07/05 00:19:34;;;;;;;9.50;3.13;;;;;;;15.40;65.84;99750.06;5121487;27;20031;-57
2022/07/05 00:21:59;;;;;;;11.32;3.90;;;;;;;15.39;65.29;99743.03;5117674;27;20092;-57
2022/07/05 00:24:25;;;;;;;12.73;3.40;;;;;;;15.45;65.04;99744.69;5125110;27;20107;-57
2022/07/05 00:26:51;;;;;;;7.85;3.33;;;;;;;15.48;65.04;99747.69;5120297;27;20030;-56
2022/07/05 00:29:16;;;;;;;10.10;3.55;;;;;;;15.30;66.62;99743.53;5116738;27;20030;-56
2022/07/05 00:31:42;;;;;;;7.28;3.47;;;;;;;14.94;68.53;99747.06;5104425;27;20032;-56
2022/07/05 00:34:07;;;;;;;9.43;3.50;;;;;;;14.89;69.64;99761.34;5116806;27;20381;-57
2022/07/05 00:36:32;;;;;;;8.57;3.85;;;;;;;15.08;69.64;99756.38;5121317;27;20023;-57
2022/07/05 00:38:58;;;;;;;6.93;3.45;;;;;;;15.19;68.11;99755.34;5120842;27;20042;-56
2022/07/05 00:41:24;;;;;;;9.48;3.65;;;;;;;15.18;67.81;99759.13;5117613;27;20024;-57
2022/07/05 00:44:18;;;;;;;9.73;3.50;;;;;;;14.98;68.59;99759.00;5123339;27;20038;-56
2022/07/05 00:46:44;;;;;;;8.05;3.47;;;;;;;15.01;69.04;99761.16;5106539;27;20036;-56
2022/07/05 00:49:09;;;;;;;11.70;3.40;;;;;;;14.91;68.79;99755.69;5120687;27;20385;-57
2022/07/05 00:51:36;;;;;;;15.00;3.97;;;;;;;14.70;70.21;99752.81;5126243;27;20027;-57
2022/07/05 00:54:02;;;;;;;8.07;3.85;;;;;;;14.61;71.31;99755.16;5114760;27;20031;-57
2022/07/05 00:56:27;;;;;;;9.13;3.97;;;;;;;14.51;71.38;99762.31;5111854;27;20480;-57
2022/07/05 00:58:53;;;;;;;11.43;4.05;;;;;;;14.02;73.64;99763.97;5120337;27;20019;-56
2022/07/05 01:01:18;;;;;;;15.95;3.92;;;;;;;14.23;72.52;99764.22;5122068;27;20038;-56
2022/07/05 01:03:44;;;;;;;9.77;4.35;;;;;;;14.28;72.13;99760.72;5116948;27;20027;-57
2022/07/05 01:06:10;;;;;;;15.55;3.88;;;;;;;14.31;71.08;99761.06;5118355;27;20020;-57
2022/07/05 01:08:40;;;;;;;8.38;3.72;;;;;;;14.12;72.57;99770.53;5121119;27;20023;-58
2022/07/05 01:11:06;;;;;;;11.77;3.88;;;;;;;14.03;72.74;99768.28;5103055;27;20477;-57
2022/07/05 01:13:31;;;;;;;11.55;3.85;;;;;;;14.19;71.28;99758.50;5118550;27;20042;-56
2022/07/05 01:15:57;;;;;;;15.48;3.58;;;;;;;14.38;71.49;99766.25;5092945;27;20019;-57
2022/07/05 01:18:22;;;;;;;6.55;3.42;;;;;;;14.36;73.36;99763.78;5102392;27;20023;-57
2022/07/05 01:20:51;;;;;;;11.07;4.10;;;;;;;14.34;71.86;99759.72;5109749;27;20587;-57
2022/07/05 01:23:20;;;;;;;11.50;4.00;;;;;;;14.50;70.19;99760.69;5103962;27;20477;-56
2022/07/05 01:25:49;;;;;;;7.10;3.83;;;;;;;14.50;71.91;99753.41;5117184;27;20430;-56
2022/07/05 01:28:14;;;;;;;6.10;3.67;;;;;;;14.50;70.79;99752.59;5120371;27;20016;-56
2022/07/05 01:30:40;;;;;;;7.50;4.00;;;;;;;14.38;72.31;99755.47;5121631;27;20052;-57
2022/07/05 01:33:06;;;;;;;11.50;3.83;;;;;;;14.48;72.92;99760.13;5099896;27;20042;-57
2022/07/05 01:35:31;;;;;;;7.07;3.53;;;;;;;14.46;71.51;99760.38;5118380;27;20035;-57
2022/07/05 01:37:57;;;;;;;10.55;3.90;;;;;;;14.19;73.46;99763.06;5098506;27;20127;-56
2022/07/05 01:40:22;;;;;;;12.57;4.07;;;;;;;14.09;73.31;99755.69;5098330;27;20027;-57
2022/07/05 01:42:48;;;;;;;9.82;4.03;;;;;;;13.96;74.19;99762.28;5111426;27;20034;-56
2022/07/05 01:45:38;;;;;;;8.65;3.90;;;;;;;13.76;75.01;99760.16;5119583;27;20027;-57
2022/07/05 01:47:59;;;;;;;7.63;3.72;;;;;;;13.66;77.25;99764.59;5116493;27;20398;-57
2022/07/05 01:50:24;;;;;;;15.05;4.55;;;;;;;13.53;77.14;99771.97;5106299;27;20019;-57
2022/07/05 01:52:50;;;;;;;8.38;4.10;;;;;;;13.55;76.88;99769.88;5098824;27;20020;-57
2022/07/05 01:55:15;;;;;;;10.40;3.97;;;;;;;13.68;76.33;99759.75;5100182;27;20031;-56
2022/07/05 01:57:41;;;;;;;8.80;4.13;;;;;;;13.82;75.57;99764.53;5105121;27;20036;-57
2022/07/05 02:00:07;;;;;;;9.18;3.90;;;;;;;13.87;75.13;99771.88;5097755;27;20031;-57
2022/07/05 02:02:32;;;;;;;10.30;4.20;;;;;;;13.73;73.22;99766.06;5122500;27;20046;-57
2022/07/05 02:04:58;;;;;;;10.55;4.68;;;;;;;13.71;75.84;99775.44;5117092;27;20023;-57
2022/07/05 02:07:23;;;;;;;9.13;4.05;;;;;;;13.80;73.94;99769.38;5119724;27;20027;-57
2022/07/05 02:09:48;;;;;;;7.85;4.07;;;;;;;13.24;76.75;99770.44;5122543;27;20080;-57
2022/07/05 02:12:14;;;;;;;12.80;4.38;;;;;;;13.17;76.21;99773.31;5118050;27;20039;-57
2022/07/05 02:14:39;;;;;;;11.68;4.10;;;;;;;13.29;76.16;99770.56;5115934;27;20073;-56
2022/07/05 02:17:05;;;;;;;11.70;4.20;;;;;;;13.00;77.84;99772.50;5121013;27;20031;-57
2022/07/05 02:19:30;;;;;;;10.20;4.07;;;;;;;13.02;77.38;99773.88;5113136;27;20490;-57
2022/07/05 02:21:56;;;;;;;10.50;4.20;;;;;;;13.28;77.67;99774.28;5122073;27;20038;-57
2022/07/05 02:24:21;;;;;;;8.07;3.90;;;;;;;13.06;77.47;99774.22;5113824;27;20366;-56
2022/07/05 02:26:48;;;;;;;7.95;3.72;;;;;;;13.02;77.98;99781.13;5120422;27;20027;-55
2022/07/05 02:29:13;;;;;;;11.02;3.92;;;;;;;12.52;80.34;99770.09;5102946;28;20031;-57
2022/07/05 02:31:39;;;;;;;9.30;4.07;;;;;;;12.76;79.30;99775.34;5124605;28;20080;-57
2022/07/05 02:34:04;;;;;;;7.13;4.10;;;;;;;12.86;79.31;99782.78;5110721;28;20034;-56
2022/07/05 02:36:29;;;;;;;8.95;4.20;;;;;;;13.20;78.33;99786.25;5120585;28;20015;-57
2022/07/05 02:38:55;;;;;;;11.07;4.60;;;;;;;13.10;78.05;99789.63;5116653;28;20024;-57
2022/07/05 02:41:20;;;;;;;7.07;4.00;;;;;;;13.00;77.87;99784.06;5118957;28;20072;-57
2022/07/05 02:43:46;;;;;;;9.68;3.97;;;;;;;12.71;79.46;99781.44;5102741;28;20076;-57
2022/07/05 02:46:11;;;;;;;9.95;3.92;;;;;;;12.91;80.76;99788.25;5117701;28;20520;-57
2022/07/05 02:48:37;;;;;;;8.82;4.07;;;;;;;12.91;79.48;99788.25;5114245;28;20026;-57
2022/07/05 02:51:03;;;;;;;9.60;4.45;;;;;;;13.22;78.17;99788.72;5115210;28;20114;-57
2022/07/05 02:53:28;;;;;;;7.22;3.55;;;;;;;12.86;78.51;99782.78;5116691;28;20483;-57
2022/07/05 02:55:54;;;;;;;6.88;3.70;;;;;;;12.84;79.43;99790.28;5111787;28;20023;-57
2022/07/05 02:58:19;;;;;;;9.20;3.80;;;;;;;12.72;80.08;99788.44;5118371;28;20107;-56
2022/07/05 03:00:45;;;;;;;7.35;4.10;;;;;;;13.05;79.16;99791.41;5114523;27;20246;-57
2022/07/05 03:03:11;;;;;;;5.40;3.70;;;;;;;12.91;79.17;99790.94;5117914;27;20019;-57
2022/07/05 03:05:36;;;;;;;10.10;3.80;;;;;;;12.96;80.05;99793.69;5106031;27;20023;-56
2022/07/05 03:08:02;;;;;;;6.40;3.67;;;;;;;12.84;80.40;99792.97;5121411;27;20462;-56
2022/07/05 03:10:27;;;;;;;13.02;5.13;;;;;;;13.39;78.21;99794.94;5125019;27;20038;-57
2022/07/05 03:12:52;;;;;;;11.85;5.15;;;;;;;13.38;78.07;99786.03;5124064;27;20019;-56
2022/07/05 03:15:18;;;;;;;6.47;3.60;;;;;;;13.39;76.53;99794.94;5102771;28;20019;-57
2022/07/05 03:17:43;;;;;;;7.80;3.78;;;;;;;12.89;78.84;99787.66;5118809;27;20685;-56
2022/07/05 03:20:09;;;;;;;7.90;3.13;;;;;;;12.93;78.22;99783.44;5117574;27;20030;-57
2022/07/05 03:22:35;;;;;;;6.93;4.45;;;;;;;13.24;79.23;99787.41;5121762;27;20020;-57
2022/07/05 03:25:00;;;;;;;8.73;3.22;;;;;;;13.14;77.86;99792.63;5078303;27;20027;-57
2022/07/05 03:27:26;;;;;;;7.88;3.65;;;;;;;13.15;79.25;99784.34;5101747;28;20015;-57
2022/07/05 03:29:51;;;;;;;10.93;4.05;;;;;;;12.98;78.42;99786.22;5119989;27;20088;-56
2022/07/05 03:32:16;;;;;;;10.27;4.25;;;;;;;13.17;78.66;99795.63;5117132;27;20084;-56
2022/07/05 03:34:42;;;;;;;8.23;3.65;;;;;;;13.10;78.18;99786.09;5118985;27;20458;-56
2022/07/05 03:37:07;;;;;;;8.70;4.47;;;;;;;13.37;79.62;99789.78;5116484;27;20028;-59
2022/07/05 03:39:33;;;;;;;9.35;3.83;;;;;;;13.62;76.01;99790.41;5103853;27;20034;-58
2022/07/05 03:41:58;;;;;;;11.65;3.50;;;;;;;13.78;76.13;99789.56;5122669;27;20027;-58
2022/07/05 03:44:23;;;;;;;5.70;3.25;;;;;;;14.17;73.01;99790.28;5122582;27;20031;-58
2022/07/05 03:46:49;;;;;;;9.73;3.53;;;;;;;14.33;73.02;99790.47;5121687;27;20043;-58
2022/07/05 03:49:14;;;;;;;6.32;3.05;;;;;;;14.41;72.94;99796.22;5122567;27;20035;-58
2022/07/05 03:51:40;;;;;;;7.50;3.30;;;;;;;14.97;70.94;99792.44;5121935;27;20123;-58
2022/07/05 03:54:05;;;;;;;8.38;2.78;;;;;;;15.27;68.86;99795.34;5116340;27;20382;-58
2022/07/05 03:56:30;;;;;;;8.48;3.17;;;;;;;15.13;70.88;99794.19;5125001;27;20016;-58
2022/07/05 03:58:56;;;;;;;10.40;3.13;;;;;;;16.13;66.58;99796.13;5123331;27;20023;-57
2022/07/05 04:01:22;;;;;;;8.40;3.40;;;;;;;17.10;62.66;99795.47;5121936;27;20515;-57
2022/07/05 04:03:47;;;;;;;7.68;3.08;;;;;;;17.54;61.33;99801.09;5119210;27;20115;-57
2022/07/05 04:06:13;;;;;;;5.85;3.42;;;;;;;18.07;59.19;99806.94;5123344;27;20133;-57
2022/07/05 04:08:38;;;;;;;5.53;2.70;;;;;;;17.84;59.63;99799.44;5100808;27;20023;-56
2022/07/05 04:11:04;;;;;;;10.25;2.90;;;;;;;16.77;62.13;99803.84;5121614;27;20031;-57
2022/07/05 04:13:29;;;;;;;7.75;3.67;;;;;;;16.49;65.72;99802.44;5108779;27;20039;-56
2022/07/05 04:15:55;;;;;;;7.65;3.60;;;;;;;17.66;62.92;99806.22;5097438;27;20088;-57
2022/07/05 04:18:21;;;;;;;15.95;3.78;;;;;;;19.40;55.78;99810.66;5115296;27;20020;-56
2022/07/05 04:20:47;;;;;;;11.63;3.08;;;;;;;19.42;54.60;99807.66;5091248;28;20423;-57
2022/07/05 04:23:12;;;;;;;4.63;2.65;;;;;;;19.93;53.34;99813.38;5118455;27;20047;-57
2022/07/05 04:25:37;;;;;;;5.82;2.50;;;;;;;21.22;50.06;99815.94;5121539;27;20065;-58
2022/07/05 04:28:03;;;;;;;5.93;2.72;;;;;;;21.50;49.20;99816.81;5121129;27;20629;-57
2022/07/05 04:30:29;;;;;;;4.63;2.60;;;;;;;21.21;50.06;99825.19;5121968;27;20023;-57
2022/07/05 04:32:54;;;;;;;6.90;2.60;;;;;;;21.95;47.78;99821.69;5101139;28;20187;-57
2022/07/05 04:35:20;;;;;;;8.70;2.85;;;;;;;22.18;47.29;99831.56;5115805;27;20016;-57
2022/07/05 04:37:45;;;;;;;7.40;2.30;;;;;;;22.42;46.34;99835.25;5102285;28;20393;-57
2022/07/05 04:40:12;;;;;;;5.05;2.58;;;;;;;22.57;46.22;99840.34;5123391;27;20039;-57
2022/07/05 04:42:37;;;;;;;9.73;2.90;;;;;;;22.50;46.20;99843.50;5116523;27;20110;-57
2022/07/05 04:45:03;;;;;;;4.82;2.83;;;;;;;21.96;47.45;99839.69;5097300;27;20023;-58
2022/07/05 04:47:29;;;;;;;6.80;2.65;;;;;;;21.88;48.45;99843.91;5121514;27;20031;-58
2022/07/05 04:49:54;;;;;;;7.72;2.90;;;;;;;22.59;46.14;99841.66;5123292;27;20092;-57
2022/07/05 04:52:20;;;;;;;5.30;2.80;;;;;;;21.69;48.25;99841.28;5117727;27;20038;-57
2022/07/05 04:54:45;;;;;;;8.05;2.97;;;;;;;22.99;46.51;99839.13;5121169;27;20031;-57
2022/07/05 04:57:10;;;;;;;5.53;2.75;;;;;;;23.89;43.82;99844.50;5117631;27;20016;-57
2022/07/05 04:59:36;;;;;;;8.65;3.10;;;;;;;23.77;43.51;99840.75;5096193;28;20016;-57
2022/07/05 05:02:01;;;;;;;8.20;3.30;;;;;;;23.73;43.70;99851.50;5118590;27;20051;-57
2022/07/05 05:04:27;;;;;;;9.30;3.13;;;;;;;23.24;44.80;99850.56;5115821;27;20024;-57
2022/07/05 05:06:52;;;;;;;6.28;2.80;;;;;;;24.87;41.70;99849.84;5109844;27;20027;-57
2022/07/05 05:09:18;;;;;;;7.32;3.17;;;;;;;24.00;43.12;99857.88;5119068;27;20028;-58
2022/07/05 05:11:43;;;;;;;12.85;3.40;;;;;;;24.59;42.70;99858.38;5121261;27;20029;-57
2022/07/05 05:14:09;;;;;;;8.43;3.20;;;;;;;24.20;43.25;99848.28;5118134;27;20026;-57
2022/07/05 05:16:34;;;;;;;10.40;3.38;;;;;;;25.48;41.17;99847.84;5102581;27;20068;-57
2022/07/05 05:19:00;;;;;;;7.95;3.10;;;;;;;25.32;41.49;99855.00;5098518;28;20028;-57
2022/07/05 05:21:25;;;;;;;12.43;3.30;;;;;;;24.44;43.41;99861.56;5101379;27;20143;-57
2022/07/05 05:23:51;;;;;;;13.50;3.40;;;;;;;26.02;41.27;99859.13;5115859;27;20469;-57
2022/07/05 05:26:16;;;;;;;13.60;2.95;;;;;;;24.95;42.92;99860.00;5122337;27;20031;-57
2022/07/05 05:28:42;;;;;;;12.45;3.33;;;;;;;25.60;42.71;99861.69;5113785;27;20035;-57
2022/07/05 05:31:07;;;;;;;10.52;2.92;;;;;;;25.46;42.81;99858.38;5120741;27;20043;-57
2022/07/05 05:33:33;;;;;;;19.58;3.58;;;;;;;25.63;43.02;99860.22;5112640;27;20023;-57
2022/07/05 05:36:01;;;;;;;7.57;2.83;;;;;;;26.31;41.51;99863.03;5121805;27;20055;-57
2022/07/05 05:38:26;;;;;;;10.50;3.07;;;;;;;25.61;42.69;99857.84;5117267;27;20426;-57
2022/07/05 05:40:52;;;;;;;10.68;3.13;;;;;;;25.81;42.81;99861.78;5118054;27;20288;-56
2022/07/05 05:43:17;;;;;;;10.57;3.22;;;;;;;26.53;41.29;99869.38;5122698;27;20037;-57
2022/07/05 05:45:43;;;;;;;7.30;2.88;;;;;;;25.92;43.09;99867.75;5119621;27;20472;-57
2022/07/05 05:48:08;;;;;;;8.80;3.10;;;;;;;26.61;41.68;99879.50;5100323;27;20027;-56
2022/07/05 05:50:35;;;;;;;12.57;3.63;;;;;;;25.61;42.69;99868.81;5113292;27;20040;-57
2022/07/05 05:53:00;;;;;;;11.68;3.58;;;;;;;27.22;40.15;99873.56;5115578;27;20023;-57
2022/07/05 05:55:26;;;;;;;10.70;4.25;;;;;;;26.89;39.54;99877.06;5117217;27;20028;-56
2022/07/05 05:57:52;;;;;;;21.73;4.78;;;;;;;26.83;39.64;99879.22;5117041;27;20381;-56
2022/07/05 06:00:18;;;;;;;13.32;5.53;;;;;;;25.68;40.30;99873.78;5120336;27;20106;-57
2022/07/05 06:02:44;;;;;;;24.30;6.28;;;;;;;26.74;38.29;99874.91;5097395;27;20047;-57
2022/07/05 06:05:09;;;;;;;18.55;5.97;;;;;;;27.64;37.36;99879.75;5122237;27;20024;-56
2022/07/05 06:07:48;;;;;;;20.02;6.20;;;;;;;27.06;38.17;99878.84;5101074;28;20367;-56
2022/07/05 06:10:21;;;;;;;21.08;5.68;;;;;;;27.64;37.58;99890.75;5098723;27;20472;-56
2022/07/05 06:12:47;;;;;;;20.10;5.10;;;;;;;28.33;36.85;99889.13;5120656;27;20114;-58
2022/07/05 06:15:12;;;;;;;22.67;5.50;;;;;;;28.90;35.45;99890.06;5117298;27;20377;-56
2022/07/05 06:17:37;;;;;;;24.17;5.88;;;;;;;28.65;35.82;99894.84;5117945;27;20024;-58
2022/07/05 06:20:13;;;;;;;24.00;6.55;;;;;;;27.06;38.28;99900.88;5115850;27;20478;-55
2022/07/05 06:22:39;;;;;;;19.70;5.82;;;;;;;28.27;36.68;99903.47;5112727;27;20047;-56
2022/07/05 06:25:05;;;;;;;30.00;6.30;;;;;;;28.33;36.75;99910.34;5117626;27;20392;-58
2022/07/05 06:27:30;;;;;;;22.52;6.20;;;;;;;28.99;35.54;99904.53;5115063;27;20024;-56
2022/07/05 06:29:56;;;;;;;33.65;5.93;;;;;;;28.71;36.00;99903.69;5121085;27;20019;-56
2022/07/05 06:32:21;;;;;;;25.63;5.85;;;;;;;28.59;35.76;99897.03;5118415;27;20024;-56
2022/07/05 06:34:47;;;;;;;31.52;6.30;;;;;;;29.39;34.99;99895.44;5116932;28;20031;-56
2022/07/05 06:37:12;;;;;;;24.58;5.68;;;;;;;27.46;37.07;99895.66;5118582;28;20024;-55
2022/07/05 06:39:38;;;;;;;31.88;5.72;;;;;;;27.54;37.71;99897.50;5098307;28;21044;-58
2022/07/05 06:42:03;;;;;;;36.42;6.32;;;;;;;29.13;35.72;99892.31;5099495;28;20473;-56
2022/07/05 06:44:29;;;;;;;29.08;5.93;;;;;;;29.67;34.49;99900.13;5117320;28;20088;-56
2022/07/05 06:46:54;;;;;;;23.40;5.95;;;;;;;28.82;35.93;99902.06;5125071;28;20027;-56
2022/07/05 06:49:20;;;;;;;26.77;6.20;;;;;;;28.11;36.54;99903.38;5113380;28;20523;-56
2022/07/05 06:51:45;;;;;;;23.77;6.03;;;;;;;28.62;35.99;99903.81;5120757;28;20032;-56
2022/07/05 06:54:11;;;;;;;32.67;5.95;;;;;;;29.59;34.57;99901.09;5085727;28;20024;-56
2022/07/05 06:56:36;;;;;;;23.98;5.50;;;;;;;29.98;34.10;99912.34;5120738;28;20023;-56
2022/07/05 06:59:02;;;;;;;44.22;6.95;;;;;;;28.85;35.37;99915.13;5120505;28;20380;-55
2022/07/05 07:01:28;;;;;;;33.20;6.00;;;;;;;28.49;36.59;99908.56;5115368;28;20027;-55
2022/07/05 07:03:53;;;;;;;40.78;6.15;;;;;;;29.25;35.30;99911.59;5116145;28;20417;-56
2022/07/05 07:06:18;;;;;;;29.77;5.93;;;;;;;29.86;34.36;99908.53;5121350;28;20023;-55
2022/07/05 07:11:27;;;;;;;40.88;6.25;;;;;;;30.00;33.89;99912.81;5117764;28;20054;-56
2022/07/05 07:13:53;;;;;;;40.33;6.57;;;;;;;28.25;36.75;99916.78;5097311;28;20019;-56
2022/07/05 07:16:18;;;;;;;47.63;6.95;;;;;;;29.57;34.99;99920.75;5118262;28;20375;-57
2022/07/05 07:18:44;;;;;;;36.63;7.00;;;;;;;29.86;34.54;99914.06;5101187;28;20492;-56
2022/07/05 07:21:09;;;;;;;36.17;6.45;;;;;;;28.31;36.76;99919.00;5099791;28;20035;-58
2022/07/05 07:23:36;;;;;;;32.17;6.32;;;;;;;29.39;35.55;99909.22;5116724;28;20026;-55
2022/07/05 07:26:01;;;;;;;36.83;7.40;;;;;;;27.29;38.26;99918.63;5115510;28;20027;-57
2022/07/05 07:28:28;;;;;;;35.42;5.88;;;;;;;27.83;37.88;99919.72;5115761;28;20167;-61
2022/07/05 07:30:53;;;;;;;26.13;6.50;;;;;;;28.33;37.19;99919.44;5113995;28;20019;-57
2022/07/05 07:33:19;;;;;;;32.50;6.28;;;;;;;27.35;39.31;99921.97;5121345;28;20371;-58
2022/07/05 07:35:44;;;;;;;23.60;5.93;;;;;;;27.86;38.28;99924.59;5118128;28;20038;-57
2022/07/05 07:38:10;;;;;;;23.23;5.68;;;;;;;28.42;36.81;99926.78;5095951;28;20430;-55
2022/07/05 07:40:35;;;;;;;18.45;5.68;;;;;;;29.17;36.16;99926.34;5125864;28;20019;-55
2022/07/05 07:43:01;;;;;;;23.77;6.13;;;;;;;28.08;37.64;99921.41;5113151;28;20015;-55
2022/07/05 07:45:27;;;;;;;24.00;5.80;;;;;;;28.81;37.63;99919.75;5109728;27;20061;-58
2022/07/05 07:47:53;;;;;;;40.33;6.90;;;;;;;29.27;35.23;99923.09;5117113;27;20030;-56
2022/07/05 07:50:18;;;;;;;27.60;6.32;;;;;;;28.79;35.76;99922.06;5101821;27;20015;-56
2022/07/05 07:52:44;;;;;;;20.58;5.60;;;;;;;27.95;37.10;99928.03;5125010;27;20027;-56
2022/07/05 07:55:10;;;;;;;29.38;6.68;;;;;;;27.77;38.14;99921.09;5117752;27;20030;-56
2022/07/05 07:57:35;;;;;;;23.33;6.55;;;;;;;29.28;35.86;99933.00;5124613;27;20102;-56
2022/07/05 08:00:01;;;;;;;23.60;5.53;;;;;;;30.07;34.98;99921.28;5121007;27;20030;-56
2022/07/05 08:02:26;;;;;;;34.20;6.35;;;;;;;27.46;38.24;99922.38;5101394;27;20404;-56
2022/07/05 08:04:53;;;;;;;34.83;6.03;;;;;;;29.54;35.90;99923.44;5118805;27;20034;-55
2022/07/05 08:07:19;;;;;;;25.45;6.45;;;;;;;30.17;34.33;99917.97;5115873;27;20028;-56
2022/07/05 08:09:44;;;;;;;39.40;7.50;;;;;;;27.37;37.77;99919.69;5117505;27;20035;-55
2022/07/05 08:12:10;;;;;;;37.00;7.00;;;;;;;29.27;36.14;99920.31;5120350;27;20031;-56
2022/07/05 08:14:35;;;;;;;27.80;6.38;;;;;;;29.03;35.89;99915.66;5122904;27;20023;-58
2022/07/05 08:17:01;;;;;;;23.65;5.80;;;;;;;30.07;33.70;99916.53;5122887;27;20027;-56
2022/07/05 08:22:24;;;;;;;25.20;6.23;;;;;;;27.50;37.87;99906.78;5089765;27;20554;-55
2022/07/05 08:24:49;;;;;;;34.50;6.28;;;;;;;28.77;36.64;99896.78;5114802;27;20036;-56
2022/07/05 08:27:15;;;;;;;21.08;5.45;;;;;;;27.85;38.20;99895.41;5104041;27;20026;-55
2022/07/05 08:29:41;;;;;;;21.45;5.82;;;;;;;27.76;37.51;99914.78;5117968;27;21373;-56
2022/07/05 08:32:07;;;;;;;29.15;6.03;;;;;;;29.40;34.53;99902.53;5118781;27;20298;-55
2022/07/05 08:34:33;;;;;;;18.33;6.25;;;;;;;27.86;37.78;99913.56;5117669;27;20110;-56
2022/07/05 08:36:59;;;;;;;23.45;5.28;;;;;;;28.58;37.02;99900.13;5117174;27;20539;-55
2022/07/05 08:39:24;;;;;;;20.58;5.82;;;;;;;28.62;36.39;99894.75;5122538;27;20027;-55
2022/07/05 08:41:50;;;;;;;17.95;6.13;;;;;;;29.88;35.03;99906.22;5094466;28;20036;-55
2022/07/05 08:44:21;;;;;;;19.85;5.10;;;;;;;29.11;36.20;99900.16;5116591;27;20493;-55
2022/07/05 08:46:47;;;;;;;14.65;5.07;;;;;;;30.02;34.42;99904.97;5110651;27;20064;-55
2022/07/05 08:49:13;;;;;;;24.23;5.22;;;;;;;29.64;34.82;99900.81;5123000;27;20023;-54
2022/07/05 08:51:40;;;;;;;30.25;6.75;;;;;;;28.58;37.47;99894.63;5117218;27;20040;-55
2022/07/05 08:54:06;;;;;;;18.83;5.53;;;;;;;28.41;37.96;99892.91;5100259;27;20110;-55
2022/07/05 08:56:32;;;;;;;23.55;6.82;;;;;;;29.23;36.13;99903.69;5124383;27;20034;-55
2022/07/05 08:58:58;;;;;;;25.92;6.82;;;;;;;28.22;36.82;99898.19;5099205;28;20115;-56
2022/07/05 09:01:24;;;;;;;19.13;5.88;;;;;;;27.37;39.77;99896.88;5096271;28;20036;-55
2022/07/05 09:03:50;;;;;;;32.20;6.70;;;;;;;28.91;36.68;99888.13;5097786;27;20042;-54
2022/07/05 09:06:17;;;;;;;16.13;6.05;;;;;;;26.74;39.49;99891.41;5120011;27;20096;-55
2022/07/05 09:08:42;;;;;;;21.00;7.03;;;;;;;25.48;42.89;99890.94;5118119;27;20533;-56
2022/07/05 09:11:15;;;;;;;21.85;7.50;;;;;;;27.31;39.86;99893.53;5117852;27;20084;-55
2022/07/05 09:13:48;;;;;;;21.85;8.65;;;;;;;25.81;42.06;99888.44;5116846;27;20077;-55
2022/07/05 09:16:13;;;;;;;14.48;6.32;;;;;;;28.08;38.68;99893.03;5117983;27;20019;-55
2022/07/05 09:18:45;;;;;;;22.73;6.43;;;;;;;26.93;39.94;99893.69;5111389;27;20064;-55
2022/07/05 09:21:18;;;;;;;23.77;7.50;;;;;;;25.40;43.30;99898.06;5117530;27;20023;-54
2022/07/05 09:23:45;;;;;;;26.50;8.20;;;;;;;25.26;43.63;99886.47;5073580;28;20355;-57
2022/07/05 09:26:11;;;;;;;20.92;6.40;;;;;;;27.23;40.67;99891.66;5102133;28;20027;-56
2022/07/05 09:28:36;;;;;;;19.77;7.95;;;;;;;26.72;40.82;99896.44;5114981;27;20374;-56
2022/07/05 09:31:02;;;;;;;17.98;7.05;;;;;;;25.90;42.17;99893.94;5077819;28;20169;-55
2022/07/05 09:33:27;;;;;;;22.13;6.57;;;;;;;26.19;41.94;99893.16;5123763;27;20020;-56
2022/07/05 09:35:57;;;;;;;23.75;6.40;;;;;;;25.80;41.17;99898.59;5116753;27;20026;-56
2022/07/05 09:38:22;;;;;;;;;;;;;;;24.83;43.40;99890.78;5097798;27;20023;-56
2022/07/05 09:40:55;;;;;;;15.15;6.35;;;;;;;24.02;46.39;99893.97;5083010;28;20323;-55
2022/07/05 09:43:22;;;;;;;12.13;6.47;;;;;;;22.99;48.56;99898.47;5117383;27;20054;-55
2022/07/05 09:45:55;;;;;;;17.17;7.40;;;;;;;22.50;48.89;99892.66;5116361;27;20028;-55
2022/07/05 09:48:21;;;;;;;14.65;6.65;;;;;;;21.60;51.56;99892.19;5118394;27;20318;-57
2022/07/05 09:50:46;;;;;;;17.38;6.22;;;;;;;22.87;49.43;99888.03;5111460;27;20119;-54
2022/07/05 09:53:12;;;;;;;17.98;6.57;;;;;;;24.28;45.20;99891.31;5095324;27;20028;-54
2022/07/05 09:55:37;;;;;;;15.95;6.00;;;;;;;25.61;42.95;99896.25;5099657;27;20039;-56
2022/07/05 09:58:03;;;;;;;17.17;6.40;;;;;;;26.39;41.12;99892.41;5115938;27;20023;-55
2022/07/05 10:00:29;;;;;;;15.73;5.43;;;;;;;26.51;40.96;99888.94;5119402;27;20020;-55
2022/07/05 10:03:00;;;;;;;18.50;6.35;;;;;;;27.74;37.59;99900.53;5115755;27;20031;-55
2022/07/05 10:05:27;;;;;;;17.65;6.22;;;;;;;26.39;39.74;99900.66;5119782;27;20030;-56
2022/07/05 10:07:52;;;;;;;17.40;5.80;;;;;;;26.88;39.72;99898.25;5118522;27;20213;-56
2022/07/05 10:10:25;;;;;;;23.80;6.50;;;;;;;26.06;40.33;99894.19;5118956;27;20027;-56
2022/07/05 10:13:01;;;;;;;13.32;5.32;;;;;;;27.22;39.24;99895.56;5116894;27;20027;-56
2022/07/05 10:15:31;;;;;;;20.77;5.32;;;;;;;27.75;38.05;99891.91;5108652;27;20024;-56
2022/07/05 10:17:58;;;;;;;18.77;4.88;;;;;;;27.63;39.54;99891.91;5094745;27;20031;-55
2022/07/05 10:20:45;;;;;;;17.20;4.95;;;;;;;28.46;37.53;99887.19;5102768;27;20038;-56
2022/07/05 10:23:12;;;;;;;17.05;5.95;;;;;;;26.11;41.40;99880.25;5116200;27;20031;-55
2022/07/05 10:25:38;;;;;;;18.38;6.28;;;;;;;25.15;43.19;99878.53;5126506;27;20023;-56
2022/07/05 10:28:04;;;;;;;13.07;5.68;;;;;;;26.47;40.90;99883.28;5115770;27;20110;-55
2022/07/05 10:30:29;;;;;;;16.85;6.53;;;;;;;26.03;40.80;99882.75;5114820;27;20172;-56
2022/07/05 10:32:55;;;;;;;16.98;5.82;;;;;;;25.12;42.10;99881.94;5117232;28;20023;-56
2022/07/05 10:35:21;;;;;;;14.32;5.72;;;;;;;26.33;41.13;99887.41;5111727;28;20028;-56
2022/07/05 10:37:47;;;;;;;8.45;4.75;;;;;;;28.04;37.48;99881.91;5118238;28;20027;-55
2022/07/05 10:40:13;;;;;;;15.70;5.22;;;;;;;28.61;36.68;99888.44;5080655;28;20023;-56
2022/07/05 10:42:44;;;;;;;14.65;5.65;;;;;;;28.26;37.39;99893.63;5117908;28;20038;-56
2022/07/05 10:45:32;;;;;;;14.15;5.47;;;;;;;26.96;39.25;99880.06;5077526;28;20023;-56
2022/07/05 10:48:09;;;;;;;20.13;4.90;;;;;;;27.14;39.57;99877.97;5116889;28;20035;-56
2022/07/05 10:50:53;;;;;;;22.25;6.50;;;;;;;25.31;41.81;99875.31;5117747;28;20027;-55
2022/07/05 10:53:23;;;;;;;15.52;6.05;;;;;;;24.79;42.69;99875.31;5113560;28;20053;-56
2022/07/05 10:56:04;;;;;;;18.05;5.38;;;;;;;25.20;43.31;99874.84;5100687;28;20034;-56
2022/07/05 10:58:41;;;;;;;10.63;5.80;;;;;;;25.19;42.83;99870.50;5115890;28;20493;-56
2022/07/05 11:01:19;;;;;;;14.88;6.03;;;;;;;26.54;40.47;99884.75;5115184;28;20039;-56
2022/07/05 11:04:00;;;;;;;18.40;5.57;;;;;;;26.43;39.84;99884.28;5108770;28;20043;-55
2022/07/05 11:06:26;;;;;;;11.90;5.57;;;;;;;26.54;40.05;99873.75;5110683;28;20027;-56
2022/07/05 11:09:04;;;;;;;10.55;5.05;;;;;;;27.15;39.21;99878.75;5118452;28;20028;-56
2022/07/05 11:11:33;;;;;;;19.08;6.90;;;;;;;24.08;43.79;99879.81;5118426;28;20039;-57
2022/07/05 11:14:03;;;;;;;15.13;5.40;;;;;;;24.96;42.80;99880.78;5095245;28;20037;-56
2022/07/05 11:16:35;;;;;;;20.75;6.65;;;;;;;24.96;41.86;99880.78;5116179;28;20032;-56
2022/07/05 11:19:08;;;;;;;10.27;5.13;;;;;;;26.12;41.34;99870.91;5109554;28;20063;-55
2022/07/05 11:21:35;;;;;;;15.60;6.40;;;;;;;25.42;41.51;99870.31;5121367;27;20028;-56
2022/07/05 11:24:23;;;;;;;17.63;5.53;;;;;;;26.59;40.15;99873.56;5107144;27;20019;-56
2022/07/05 11:26:52;;;;;;;13.27;4.72;;;;;;;26.37;40.31;99872.69;5116034;27;20053;-56
2022/07/05 11:29:42;;;;;;;20.70;5.28;;;;;;;26.18;39.93;99873.09;5130680;27;20107;-55
2022/07/05 11:32:18;;;;;;;32.63;5.25;;;;;;;27.08;38.55;99873.81;5114687;27;20039;-56